Time;durP1;ratioP1;P1;durP2;ratioP2;P2;SDS_P1;SDS_P2;PMS_P1;PMS_P2;Temp;Humidity;BMP_temperature;BMP_pressure;BME280_temperature;BME280_humidity;BME280_pressure;Samples;Min_cycle;Max_cycle;Signal;HPM_P1;HPM_P2
2023/12/06 00:02:17;;;;;;;38.70;22.60;;;;;;;-1.93;85.32;100455.14;105712;1258;71736;-75
2023/12/06 00:04:44;;;;;;;31.20;21.30;;;;;;;-1.84;85.17;100455.24;105662;1256;60069;-77
2023/12/06 00:07:12;;;;;;;33.80;22.70;;;;;;;-1.74;85.22;100454.42;105714;1259;59575;-74
2023/12/06 00:09:39;;;;;;;36.00;22.90;;;;;;;-1.75;85.14;100454.63;105693;1260;73269;-79
2023/12/06 00:12:07;;;;;;;33.70;22.40;;;;;;;-1.77;85.24;100455.96;105571;1260;70318;-78
2023/12/06 00:14:35;;;;;;;35.10;23.40;;;;;;;-1.80;85.36;100457.27;105654;1256;70561;-77
2023/12/06 00:17:02;;;;;;;37.00;23.10;;;;;;;-1.83;85.61;100461.25;105825;1267;59998;-78
2023/12/06 00:19:30;;;;;;;32.80;21.50;;;;;;;-1.85;85.68;100461.86;105780;1256;59942;-74
2023/12/06 00:21:58;;;;;;;33.30;21.90;;;;;;;-1.76;85.69;100458.49;105899;1255;72976;-77
2023/12/06 00:24:25;;;;;;;34.70;21.90;;;;;;;-1.67;85.25;100454.59;105887;1262;70365;-78
2023/12/06 00:26:53;;;;;;;35.90;22.90;;;;;;;-1.67;85.38;100458.62;105915;1261;72944;-78
2023/12/06 00:29:20;;;;;;;29.20;20.10;;;;;;;-1.73;85.62;100458.02;106527;1257;59766;-77
2023/12/06 00:31:48;;;;;;;29.40;19.80;;;;;;;-1.79;85.82;100456.91;106558;1259;59563;-77
2023/12/06 00:34:15;;;;;;;32.30;22.90;;;;;;;-1.84;86.11;100453.64;105926;1259;73004;-78
2023/12/06 00:36:43;;;;;;;32.80;21.10;;;;;;;-1.85;86.31;100453.36;105880;1259;69266;-78
2023/12/06 00:39:13;;;;;;;30.30;20.00;;;;;;;-1.75;86.15;100456.39;105838;1259;72661;-77
2023/12/06 00:41:44;;;;;;;31.70;21.10;;;;;;;-1.66;85.91;100455.09;105942;1258;60537;-78
2023/12/06 00:44:12;;;;;;;33.30;20.80;;;;;;;-1.67;86.10;100451.50;105848;1261;60413;-78
2023/12/06 00:46:40;;;;;;;34.00;24.00;;;;;;;-1.71;86.23;100447.50;105932;1259;73956;-77
2023/12/06 00:49:07;;;;;;;34.40;21.90;;;;;;;-1.73;86.47;100444.30;105865;1258;69546;-78
2023/12/06 00:51:35;;;;;;;37.00;22.50;;;;;;;-1.74;86.62;100449.55;105947;1254;71358;-77
2023/12/06 00:54:02;;;;;;;30.90;22.20;;;;;;;-1.65;86.17;100445.33;105983;1259;60887;-77
2023/12/06 00:56:30;;;;;;;31.90;22.70;;;;;;;-1.60;86.10;100447.48;105863;1254;60528;-75
2023/12/06 00:58:58;;;;;;;33.60;22.70;;;;;;;-1.64;86.15;100447.18;106087;1259;74060;-76
2023/12/06 01:01:25;;;;;;;37.40;24.30;;;;;;;-1.69;86.18;100448.46;106985;1259;69226;-75
2023/12/06 01:03:53;;;;;;;37.40;24.30;;;;;;;-1.73;86.26;100451.24;107467;1258;71372;-76
2023/12/06 01:06:20;;;;;;;37.70;24.20;;;;;;;-1.75;86.13;100451.67;107923;1257;60428;-75
2023/12/06 01:08:49;;;;;;;38.40;25.10;;;;;;;-1.66;85.95;100448.99;106021;1257;60444;-78
2023/12/06 01:11:16;;;;;;;35.40;24.50;;;;;;;-1.57;85.71;100446.14;105882;1260;75880;-76
2023/12/06 01:13:44;;;;;;;31.30;21.80;;;;;;;-1.59;85.75;100445.55;105820;1257;70663;-75
2023/12/06 01:16:11;;;;;;;34.20;23.60;;;;;;;-1.62;85.91;100442.23;105744;1257;71579;-74
2023/12/06 01:18:39;;;;;;;31.10;20.20;;;;;;;-1.65;85.97;100432.98;105900;1254;60533;-74
2023/12/06 01:21:07;;;;;;;37.20;23.10;;;;;;;-1.67;85.68;100428.38;106151;1254;60689;-75
2023/12/06 01:23:34;;;;;;;33.90;22.40;;;;;;;-1.60;85.35;100428.59;105863;1254;73985;-74
2023/12/06 01:26:02;;;;;;;31.30;20.10;;;;;;;-1.56;85.25;100430.49;105837;1261;69303;-75
2023/12/06 01:28:30;;;;;;;32.70;21.80;;;;;;;-1.63;85.22;100425.39;105777;1259;71632;-75
2023/12/06 01:30:57;;;;;;;34.80;22.90;;;;;;;-1.69;85.43;100424.48;105656;1260;60451;-73
2023/12/06 01:33:25;;;;;;;33.70;21.80;;;;;;;-1.73;85.34;100421.55;105603;1260;60471;-74
2023/12/06 01:35:52;;;;;;;33.00;22.20;;;;;;;-1.78;85.21;100422.27;105528;1254;72594;-77
2023/12/06 01:38:20;;;;;;;29.90;20.50;;;;;;;-1.69;85.13;100421.90;105533;1254;70413;-74
2023/12/06 01:40:47;;;;;;;34.60;22.20;;;;;;;-1.59;84.71;100422.96;105746;1259;71463;-76
2023/12/06 01:43:15;;;;;;;31.40;21.30;;;;;;;-1.61;84.73;100427.55;105963;1257;60424;-77
2023/12/06 01:45:42;;;;;;;29.20;20.50;;;;;;;-1.66;84.82;100426.23;105920;1261;60349;-77
2023/12/06 01:48:10;;;;;;;31.50;22.10;;;;;;;-1.69;84.64;100429.53;105881;1260;72622;-77
2023/12/06 01:50:38;;;;;;;35.20;20.20;;;;;;;-1.71;84.83;100423.55;105913;1261;69033;-77
2023/12/06 01:53:05;;;;;;;30.30;21.40;;;;;;;-1.70;84.59;100416.69;105918;1261;72885;-73
2023/12/06 01:55:33;;;;;;;29.80;20.60;;;;;;;-1.59;84.11;100414.47;105911;1264;60536;-77
2023/12/06 01:58:01;;;;;;;29.00;19.10;;;;;;;-1.57;84.11;100415.23;106086;1261;60285;-77
2023/12/06 02:00:29;;;;;;;29.30;20.60;;;;;;;-1.61;84.16;100414.21;106174;1258;72765;-77
2023/12/06 02:02:57;;;;;;;31.00;21.80;;;;;;;-1.65;84.29;100418.74;106838;1257;70246;-76
2023/12/06 02:05:24;;;;;;;28.90;19.90;;;;;;;-1.68;84.35;100412.95;106724;1259;71231;-77
2023/12/06 02:07:52;;;;;;;29.90;19.70;;;;;;;-1.70;84.40;100412.70;105903;1261;60601;-76
2023/12/06 02:10:20;;;;;;;26.60;18.90;;;;;;;-1.60;83.98;100409.98;105741;1254;60768;-77
2023/12/06 02:12:47;;;;;;;28.50;18.80;;;;;;;-1.52;83.70;100408.39;105818;1254;72399;-77
2023/12/06 02:17:40;;;;;;;31.90;20.40;;;;;;;-1.64;83.96;100403.40;105728;1259;60999;-76
2023/12/06 02:20:09;;;;;;;31.70;18.40;;;;;;;-1.69;84.10;100403.30;105715;1259;60908;-76
2023/12/06 02:22:36;;;;;;;28.90;18.80;;;;;;;-1.72;83.76;100399.45;105765;1257;60628;-79
2023/12/06 02:25:09;;;;;;;27.00;18.50;;;;;;;-1.65;83.66;100401.69;105816;1261;73753;-78
2023/12/06 02:27:40;;;;;;;31.90;21.00;;;;;;;-1.62;83.61;100407.32;105797;1260;69016;-76
2023/12/06 02:30:09;;;;;;;30.60;19.80;;;;;;;-1.69;83.81;100413.17;105822;1254;73129;-79
2023/12/06 02:32:37;;;;;;;29.60;19.60;;;;;;;-1.74;83.95;100406.30;106086;1257;60512;-78
2023/12/06 02:35:14;;;;;;;28.60;19.80;;;;;;;-1.81;84.01;100400.36;105929;1256;60599;-77
2023/12/06 02:37:42;;;;;;;30.40;20.70;;;;;;;-1.75;83.93;100407.95;107010;1253;72637;-72
2023/12/06 02:40:10;;;;;;;29.60;20.40;;;;;;;-1.67;83.97;100406.83;105833;1255;70136;-76
2023/12/06 02:42:38;;;;;;;28.60;19.60;;;;;;;-1.69;84.26;100411.62;105576;1254;72464;-76
2023/12/06 02:45:08;;;;;;;30.50;20.70;;;;;;;-1.74;84.35;100409.96;105597;1258;60537;-74
2023/12/06 02:47:36;;;;;;;31.80;20.70;;;;;;;-1.79;84.21;100407.76;105614;1259;60563;-77
2023/12/06 02:50:04;;;;;;;27.30;18.30;;;;;;;-1.82;84.02;100403.38;105674;1253;72658;-77
2023/12/06 02:52:32;;;;;;;27.70;18.80;;;;;;;-1.74;83.67;100406.83;105643;1259;70063;-77
2023/12/06 02:54:59;;;;;;;31.30;19.70;;;;;;;-1.69;83.49;100415.98;105644;1255;71046;-77
2023/12/06 02:57:27;;;;;;;32.20;21.20;;;;;;;-1.72;83.58;100414.20;105595;1260;60456;-77
2023/12/06 02:59:54;;;;;;;31.00;20.60;;;;;;;-1.75;83.87;100416.45;105798;1257;60483;-78
2023/12/06 03:02:22;;;;;;;31.80;20.40;;;;;;;-1.80;83.93;100418.05;106031;1254;72580;-77
2023/12/06 03:04:49;;;;;;;35.50;21.50;;;;;;;-1.82;84.06;100415.89;106025;1261;69347;-78
2023/12/06 03:07:17;;;;;;;32.60;21.40;;;;;;;-1.84;84.13;100415.09;106125;1258;72633;-79
2023/12/06 03:09:45;;;;;;;27.70;19.00;;;;;;;-1.82;83.79;100412.95;106234;1259;60525;-77
2023/12/06 03:12:12;;;;;;;31.50;21.10;;;;;;;-1.73;83.23;100410.42;105995;1254;60460;-79
2023/12/06 03:14:41;;;;;;;28.30;19.50;;;;;;;-1.73;83.22;100409.73;106176;1258;74720;-79
2023/12/06 03:17:08;;;;;;;34.50;21.90;;;;;;;-1.76;83.52;100409.73;107899;1258;70419;-77
2023/12/06 03:19:36;;;;;;;28.90;20.10;;;;;;;-1.79;83.65;100406.56;106044;1254;71276;-79
2023/12/06 03:22:04;;;;;;;26.60;19.00;;;;;;;-1.84;83.53;100406.07;105773;1255;60540;-76
2023/12/06 03:24:31;;;;;;;34.90;20.20;;;;;;;-1.85;83.39;100403.86;106123;1253;60455;-78
2023/12/06 03:26:59;;;;;;;31.00;20.30;;;;;;;-1.74;83.15;100404.75;105831;1259;72646;-81
2023/12/06 03:29:26;;;;;;;30.80;21.40;;;;;;;-1.75;83.13;100401.48;105838;1260;68063;-79
2023/12/06 03:31:55;;;;;;;30.10;21.00;;;;;;;-1.82;83.10;100400.27;106084;1254;72736;-79
2023/12/06 03:34:22;;;;;;;33.50;22.30;;;;;;;-1.89;83.39;100392.96;106016;1258;60483;-79
2023/12/06 03:36:50;;;;;;;29.60;19.80;;;;;;;-1.91;83.49;100394.08;106167;1254;60544;-79
2023/12/06 03:39:18;;;;;;;30.70;20.30;;;;;;;-1.82;83.55;100392.43;106194;1254;73897;-78
2023/12/06 03:41:45;;;;;;;33.20;20.50;;;;;;;-1.82;83.57;100396.45;106142;1259;68928;-80
2023/12/06 03:44:13;;;;;;;31.40;20.50;;;;;;;-1.88;83.67;100402.45;106006;1254;71796;-81
2023/12/06 03:46:40;;;;;;;36.50;21.70;;;;;;;-1.94;83.73;100402.74;106055;1254;60443;-79
2023/12/06 03:49:08;;;;;;;31.30;20.40;;;;;;;-1.99;83.78;100408.16;107671;1259;59227;-81
2023/12/06 03:51:36;;;;;;;27.90;19.90;;;;;;;-1.92;83.57;100406.63;107778;1254;72648;-80
2023/12/06 03:54:04;;;;;;;30.90;20.30;;;;;;;-1.83;83.42;100406.21;107340;1254;70277;-82
2023/12/06 03:56:32;;;;;;;32.00;20.90;;;;;;;-1.86;83.54;100408.64;108026;1253;71044;-76
2023/12/06 03:59:00;;;;;;;33.10;21.20;;;;;;;-1.90;83.63;100411.08;105905;1254;60595;-75
2023/12/06 04:01:27;;;;;;;34.10;21.40;;;;;;;-1.94;83.93;100416.11;105839;1254;60499;-77
2023/12/06 04:03:55;;;;;;;31.50;20.60;;;;;;;-1.98;83.89;100417.34;106064;1254;72600;-75
2023/12/06 04:06:23;;;;;;;30.10;20.30;;;;;;;-1.92;83.87;100421.77;105823;1257;68666;-75
2023/12/06 04:08:51;;;;;;;31.00;20.40;;;;;;;-1.83;83.55;100418.73;106103;1253;72723;-74
2023/12/06 04:11:18;;;;;;;37.60;22.70;;;;;;;-1.87;83.52;100430.55;107521;1254;60483;-74
2023/12/06 04:13:46;;;;;;;33.00;22.40;;;;;;;-1.93;83.87;100434.49;106072;1254;60426;-78
2023/12/06 04:16:17;;;;;;;34.50;23.90;;;;;;;-1.98;83.90;100432.94;105780;1254;74761;-77
2023/12/06 04:18:44;;;;;;;35.80;24.70;;;;;;;-2.00;83.93;100424.37;105903;1255;70891;-77
2023/12/06 04:21:12;;;;;;;39.70;24.80;;;;;;;-2.02;84.01;100421.50;105796;1254;72681;-77
2023/12/06 04:23:39;;;;;;;34.80;24.20;;;;;;;-1.92;83.89;100419.67;105847;1256;60486;-75
2023/12/06 04:26:07;;;;;;;37.90;25.30;;;;;;;-1.85;83.71;100422.63;105810;1254;61021;-76
2023/12/06 04:28:35;;;;;;;36.70;27.30;;;;;;;-1.88;83.84;100427.11;105640;1258;74044;-77
2023/12/06 04:31:02;;;;;;;40.50;27.50;;;;;;;-1.91;84.20;100425.34;105724;1254;70173;-76
2023/12/06 04:33:30;;;;;;;41.10;28.60;;;;;;;-1.93;84.37;100427.16;105808;1254;72852;-76
2023/12/06 04:35:57;;;;;;;40.90;26.60;;;;;;;-1.96;84.17;100429.05;105810;1254;61190;-76
2023/12/06 04:38:25;;;;;;;41.20;26.50;;;;;;;-1.99;83.78;100423.77;105585;1260;60547;-79
2023/12/06 04:40:53;;;;;;;40.60;25.90;;;;;;;-1.92;83.77;100425.58;105784;1253;72592;-78
2023/12/06 04:43:21;;;;;;;43.50;27.00;;;;;;;-1.93;83.57;100429.78;105820;1254;68817;-76
2023/12/06 04:45:48;;;;;;;38.80;26.80;;;;;;;-2.00;83.79;100430.95;105782;1257;71412;-77
2023/12/06 04:48:16;;;;;;;45.50;28.40;;;;;;;-2.06;84.15;100433.50;105887;1254;60466;-79
2023/12/06 04:50:44;;;;;;;40.80;26.70;;;;;;;-2.11;84.27;100433.56;105736;1254;60305;-78
2023/12/06 04:53:12;;;;;;;38.00;26.70;;;;;;;-2.09;84.30;100436.92;105765;1254;72647;-78
2023/12/06 04:55:39;;;;;;;37.40;26.20;;;;;;;-1.99;84.09;100441.17;105748;1255;70310;-77
2023/12/06 04:58:08;;;;;;;38.60;25.90;;;;;;;-2.04;84.32;100442.08;105756;1254;72619;-79
2023/12/06 05:00:36;;;;;;;43.80;27.70;;;;;;;-2.13;84.59;100444.92;105845;1254;60446;-77
2023/12/06 05:03:04;;;;;;;39.70;26.60;;;;;;;-2.19;84.85;100442.95;105798;1254;61986;-77
2023/12/06 05:05:32;;;;;;;43.20;26.40;;;;;;;-2.24;84.99;100442.11;105780;1254;73874;-80
2023/12/06 05:07:59;;;;;;;42.50;27.10;;;;;;;-2.15;84.90;100439.12;105806;1253;70543;-78
2023/12/06 05:10:27;;;;;;;40.70;26.50;;;;;;;-2.09;84.72;100445.60;105843;1254;71487;-76
2023/12/06 05:12:56;;;;;;;37.50;24.20;;;;;;;-2.14;84.98;100444.27;105855;1254;60530;-76
2023/12/06 05:15:25;;;;;;;37.30;25.50;;;;;;;-2.21;85.08;100441.29;105832;1254;60486;-77
2023/12/06 05:17:53;;;;;;;41.40;27.40;;;;;;;-2.26;85.32;100441.20;105858;1254;72558;-77
2023/12/06 05:20:21;;;;;;;39.10;26.00;;;;;;;-2.24;85.36;100439.50;105658;1255;69938;-77
2023/12/06 05:22:48;;;;;;;38.30;26.40;;;;;;;-2.13;85.00;100438.34;106135;1260;72417;-77
2023/12/06 05:25:16;;;;;;;41.00;26.90;;;;;;;-2.13;85.20;100439.92;106143;1254;60457;-78
2023/12/06 05:27:43;;;;;;;35.80;24.80;;;;;;;-2.18;85.44;100440.45;106501;1253;60404;-79
2023/12/06 05:30:11;;;;;;;44.90;28.10;;;;;;;-2.21;85.47;100440.26;107654;1253;74504;-79
2023/12/06 05:32:39;;;;;;;40.80;26.20;;;;;;;-2.23;85.66;100438.79;108321;1255;68724;-77
2023/12/06 05:35:07;;;;;;;36.50;23.70;;;;;;;-2.19;85.37;100439.27;106227;1253;74838;-79
2023/12/06 05:37:35;;;;;;;36.80;24.20;;;;;;;-2.04;84.84;100440.17;105923;1254;60519;-80
2023/12/06 05:40:03;;;;;;;37.90;23.20;;;;;;;-2.01;84.86;100443.16;105896;1254;60421;-78
2023/12/06 05:42:31;;;;;;;31.90;22.30;;;;;;;-2.04;84.56;100445.90;106048;1254;73789;-78
2023/12/06 05:44:59;;;;;;;32.00;21.50;;;;;;;-2.10;84.65;100444.30;106621;1258;69087;-78
2023/12/06 05:47:26;;;;;;;37.10;22.30;;;;;;;-2.17;84.63;100443.70;105967;1258;72847;-77
2023/12/06 05:49:54;;;;;;;35.90;21.80;;;;;;;-2.21;84.73;100439.04;106004;1253;61003;-72
2023/12/06 05:52:21;;;;;;;29.60;19.90;;;;;;;-2.13;84.30;100443.90;105902;1255;60429;-74
2023/12/06 05:54:49;;;;;;;31.20;21.60;;;;;;;-2.07;83.83;100445.36;105837;1254;72896;-76
2023/12/06 05:57:16;;;;;;;32.30;21.30;;;;;;;-2.12;83.89;100441.58;105939;1253;70108;-78
2023/12/06 05:59:44;;;;;;;32.10;21.80;;;;;;;-2.20;84.29;100446.27;105799;1254;72023;-77
2023/12/06 06:02:12;;;;;;;39.80;23.00;;;;;;;-2.24;84.47;100446.99;105706;1256;60471;-77
2023/12/06 06:04:39;;;;;;;34.70;22.30;;;;;;;-2.26;84.39;100452.45;105864;1253;60601;-76
2023/12/06 06:07:07;;;;;;;32.90;20.90;;;;;;;-2.15;83.98;100452.47;105775;1255;73906;-77
2023/12/06 06:09:35;;;;;;;30.00;21.30;;;;;;;-2.10;83.83;100453.83;105564;1255;70793;-77
2023/12/06 06:12:07;;;;;;;29.80;19.90;;;;;;;-2.14;83.99;100456.63;105731;1258;71432;-75
2023/12/06 06:14:34;;;;;;;31.30;21.70;;;;;;;-2.20;83.94;100454.77;105782;1257;60486;-76
2023/12/06 06:17:02;;;;;;;33.30;20.90;;;;;;;-2.26;83.84;100465.11;105682;1254;60546;-77
2023/12/06 06:19:29;;;;;;;30.50;21.30;;;;;;;-2.27;83.65;100464.12;105839;1257;73862;-76
2023/12/06 06:21:57;;;;;;;32.00;21.70;;;;;;;-2.17;83.66;100465.90;105831;1258;69435;-76
2023/12/06 06:24:25;;;;;;;31.10;21.90;;;;;;;-2.11;83.59;100467.93;105784;1259;72676;-77
2023/12/06 06:26:53;;;;;;;31.60;21.90;;;;;;;-2.14;83.76;100470.13;105798;1258;60520;-78
2023/12/06 06:29:20;;;;;;;28.20;20.50;;;;;;;-2.18;83.82;100470.47;105786;1258;60384;-77
2023/12/06 06:31:48;;;;;;;31.20;21.70;;;;;;;-2.21;83.88;100469.92;105885;1253;73890;-76
2023/12/06 06:34:16;;;;;;;30.90;22.40;;;;;;;-2.21;84.04;100472.54;105834;1257;68725;-76
2023/12/06 06:36:44;;;;;;;33.10;22.80;;;;;;;-2.08;83.85;100470.40;105874;1254;71600;-78
2023/12/06 06:39:12;;;;;;;33.70;23.40;;;;;;;-1.95;83.40;100470.13;105745;1254;60631;-77
2023/12/06 06:41:43;;;;;;;37.90;24.70;;;;;;;-1.94;83.31;100475.33;105815;1259;62260;-77
2023/12/06 06:44:10;;;;;;;34.60;24.70;;;;;;;-1.98;83.45;100474.94;105930;1255;73853;-78
2023/12/06 06:46:38;;;;;;;32.80;22.70;;;;;;;-2.00;83.42;100476.80;105957;1253;70095;-80
2023/12/06 06:49:07;;;;;;;38.00;24.80;;;;;;;-2.05;83.39;100481.17;106346;1253;73117;-81
2023/12/06 06:51:35;;;;;;;33.20;22.60;;;;;;;-2.07;83.52;100479.36;105857;1255;61097;-82
2023/12/06 06:54:03;;;;;;;33.60;22.20;;;;;;;-1.96;83.11;100478.33;106089;1254;60537;-82
2023/12/06 06:56:31;;;;;;;34.40;23.60;;;;;;;-1.84;82.78;100476.77;106173;1253;73897;-79
2023/12/06 06:59:00;;;;;;;34.30;22.80;;;;;;;-1.84;82.80;100481.24;106566;1253;70128;-82
2023/12/06 07:01:28;;;;;;;34.10;23.80;;;;;;;-1.87;82.56;100483.66;107164;1260;72898;-82
2023/12/06 07:03:56;;;;;;;36.50;24.70;;;;;;;-1.90;82.63;100481.55;106647;1256;60479;-81
2023/12/06 07:06:25;;;;;;;35.40;24.90;;;;;;;-1.91;82.77;100485.09;106287;1253;60339;-79
2023/12/06 07:08:53;;;;;;;41.20;27.10;;;;;;;-1.92;82.58;100486.52;106022;1256;77769;-80
2023/12/06 07:11:21;;;;;;;29.60;21.80;;;;;;;-1.82;82.32;100489.66;106115;1254;69348;-81
2023/12/06 07:13:49;;;;;;;32.00;20.90;;;;;;;-1.71;81.90;100491.43;106396;1257;71858;-80
2023/12/06 07:16:17;;;;;;;34.60;22.30;;;;;;;-1.73;81.30;100495.70;106458;1256;60524;-82
2023/12/06 07:18:45;;;;;;;34.80;23.10;;;;;;;-1.81;81.36;100493.12;107997;1253;60598;-81
2023/12/06 07:21:12;;;;;;;43.30;24.70;;;;;;;-1.87;81.50;100497.03;108113;1254;72577;-82
2023/12/06 07:23:40;;;;;;;34.10;22.40;;;;;;;-1.88;81.61;100494.30;106377;1253;70158;-81
2023/12/06 07:26:08;;;;;;;32.10;21.90;;;;;;;-1.77;81.31;100500.05;106450;1256;72632;-80
2023/12/06 07:28:35;;;;;;;28.50;20.40;;;;;;;-1.66;80.85;100501.80;106110;1259;60785;-81
2023/12/06 07:31:03;;;;;;;31.20;20.10;;;;;;;-1.68;80.97;100511.98;106211;1253;60490;-81
2023/12/06 07:33:31;;;;;;;33.10;21.80;;;;;;;-1.75;80.69;100506.39;105839;1253;73962;-79
2023/12/06 07:35:58;;;;;;;32.00;20.90;;;;;;;-1.84;80.59;100501.25;106126;1253;69205;-81
2023/12/06 07:38:28;;;;;;;30.50;20.80;;;;;;;-1.91;80.87;100503.13;106054;1254;72645;-79
2023/12/06 07:40:56;;;;;;;27.00;19.70;;;;;;;-1.88;80.80;100499.67;106311;1258;61129;-79
2023/12/06 07:43:25;;;;;;;33.20;20.50;;;;;;;-1.74;80.84;100500.98;106690;1258;59987;-78
2023/12/06 07:45:53;;;;;;;34.90;20.00;;;;;;;-1.71;80.85;100503.44;108000;1254;72335;-78
2023/12/06 07:48:20;;;;;;;32.50;20.60;;;;;;;-1.71;80.95;100501.69;107064;1259;69036;-80
2023/12/06 07:50:50;;;;;;;30.60;21.00;;;;;;;-1.71;80.97;100503.09;107060;1253;71428;-79
2023/12/06 07:53:18;;;;;;;30.00;21.50;;;;;;;-1.72;80.92;100508.33;106943;1253;60391;-81
2023/12/06 07:55:46;;;;;;;36.50;22.70;;;;;;;-1.70;80.80;100511.74;107006;1254;60539;-79
2023/12/06 07:58:16;;;;;;;28.10;20.00;;;;;;;-1.60;80.49;100507.44;107230;1254;72813;-79
2023/12/06 08:00:44;;;;;;;27.90;19.00;;;;;;;-1.48;80.16;100506.70;108089;1253;69385;-77
2023/12/06 08:03:11;;;;;;;29.90;20.50;;;;;;;-1.48;80.19;100508.44;108117;1254;71291;-78
2023/12/06 08:05:39;;;;;;;31.90;21.20;;;;;;;-1.50;80.11;100511.64;107403;1254;60423;-81
2023/12/06 08:08:06;;;;;;;28.90;20.50;;;;;;;-1.53;79.89;100508.70;107785;1257;60374;-78
2023/12/06 08:10:34;;;;;;;31.20;21.10;;;;;;;-1.58;79.93;100513.75;107581;1253;72604;-80
2023/12/06 08:13:03;;;;;;;31.80;20.60;;;;;;;-1.61;79.97;100522.22;107335;1258;67987;-76
2023/12/06 08:15:31;;;;;;;29.90;21.20;;;;;;;-1.52;79.78;100522.02;107270;1254;71277;-79
2023/12/06 08:17:58;;;;;;;29.40;20.90;;;;;;;-1.46;79.54;100517.02;107042;1253;60521;-75
2023/12/06 08:20:26;;;;;;;33.50;23.10;;;;;;;-1.49;79.56;100520.47;107053;1258;60501;-77
2023/12/06 08:22:54;;;;;;;31.90;20.50;;;;;;;-1.51;79.88;100525.08;106496;1259;74236;-77
2023/12/06 08:25:22;;;;;;;32.00;23.00;;;;;;;-1.52;79.85;100532.95;105959;1254;69049;-75
2023/12/06 08:27:50;;;;;;;37.00;23.80;;;;;;;-1.56;79.88;100524.45;105947;1258;71614;-76
2023/12/06 08:30:17;;;;;;;34.00;22.50;;;;;;;-1.50;79.91;100532.52;105972;1255;60521;-77
2023/12/06 08:32:46;;;;;;;38.30;25.00;;;;;;;-1.39;79.59;100529.02;105989;1253;60593;-78
2023/12/06 08:35:14;;;;;;;34.70;24.70;;;;;;;-1.36;79.56;100523.84;105998;1253;73948;-78
2023/12/06 08:37:42;;;;;;;36.20;23.20;;;;;;;-1.42;79.50;100524.96;105957;1258;68245;-77
2023/12/06 08:40:11;;;;;;;38.50;25.50;;;;;;;-1.46;79.40;100528.30;105967;1254;71790;-76
2023/12/06 08:42:39;;;;;;;37.60;23.90;;;;;;;-1.49;79.37;100526.73;105941;1254;60537;-77
2023/12/06 08:45:08;;;;;;;38.80;25.80;;;;;;;-1.51;79.51;100529.44;105238;1254;1078380;-77
2023/12/06 08:50:58;;;;;;;41.30;28.50;;;;;;;-1.36;79.42;100514.33;102768;1293;602715;-76
2023/12/06 08:53:25;;;;;;;36.10;25.50;;;;;;;-1.37;79.35;100513.99;106142;1265;59224;-76
2023/12/06 08:55:54;;;;;;;34.20;23.90;;;;;;;-1.37;79.42;100510.52;105456;1263;60319;-77
2023/12/06 08:58:21;;;;;;;35.20;25.00;;;;;;;-1.35;79.36;100509.05;105440;1264;71266;-76
2023/12/06 09:00:48;;;;;;;33.90;22.80;;;;;;;-1.33;79.02;100511.55;105854;1254;70282;-76
2023/12/06 09:03:15;;;;;;;36.20;23.00;;;;;;;-1.24;78.67;100508.13;105718;1259;127642;-77
2023/12/06 09:05:42;;;;;;;35.70;24.30;;;;;;;-1.12;78.49;100508.83;105921;1253;59226;-76
2023/12/06 09:08:11;;;;;;;35.40;23.90;;;;;;;-1.12;78.50;100508.62;106030;1251;60100;-75
2023/12/06 09:10:39;;;;;;;33.70;22.50;;;;;;;-1.13;78.16;100510.09;106017;1251;72261;-77
2023/12/06 09:13:06;;;;;;;35.20;24.30;;;;;;;-1.16;77.86;100499.61;106058;1251;68890;-76
2023/12/06 09:15:33;;;;;;;34.20;24.80;;;;;;;-1.20;77.89;100494.91;106016;1254;72665;-78
2023/12/06 09:18:00;;;;;;;38.90;24.60;;;;;;;-1.20;77.85;100503.44;106003;1251;61487;-76
2023/12/06 09:20:26;;;;;;;32.70;23.00;;;;;;;-1.17;77.64;100492.89;106010;1254;59707;-76
2023/12/06 09:22:53;;;;;;;38.40;25.50;;;;;;;-1.03;77.37;100497.06;105965;1251;73135;-75
2023/12/06 09:25:20;;;;;;;38.90;25.30;;;;;;;-0.89;77.29;100495.35;105992;1251;69321;-74
2023/12/06 09:27:50;;;;;;;36.80;24.10;;;;;;;-0.83;77.36;100498.86;105945;1251;72616;-74
2023/12/06 09:30:17;;;;;;;35.80;24.30;;;;;;;-0.79;76.94;100496.39;106067;1256;59715;-74
2023/12/06 09:32:45;;;;;;;37.50;23.60;;;;;;;-0.75;76.61;100499.14;106011;1253;60020;-74
2023/12/06 09:35:12;;;;;;;35.40;24.80;;;;;;;-0.72;76.13;100496.03;106032;1254;73022;-75
2023/12/06 09:37:39;;;;;;;38.00;24.60;;;;;;;-0.71;75.61;100492.67;106006;1251;70067;-74
2023/12/06 09:40:07;;;;;;;35.70;24.20;;;;;;;-0.63;75.32;100492.95;105867;1252;72858;-74
2023/12/06 09:42:36;;;;;;;33.80;22.60;;;;;;;-0.47;74.90;100494.62;106075;1253;59541;-75
2023/12/06 09:45:04;;;;;;;33.50;23.50;;;;;;;-0.45;74.68;100488.05;105908;1258;60153;-75
2023/12/06 09:47:32;;;;;;;37.70;23.60;;;;;;;-0.45;74.30;100491.89;105828;1258;73023;-75
2023/12/06 09:49:59;;;;;;;35.50;25.40;;;;;;;-0.44;74.23;100486.59;105804;1258;70209;-74
2023/12/06 09:52:25;;;;;;;33.30;23.50;;;;;;;-0.38;74.22;100487.70;105954;1253;73745;-75
2023/12/06 09:54:53;;;;;;;41.60;27.10;;;;;;;-0.33;73.73;100488.48;105934;1253;59640;-75
2023/12/06 09:57:21;;;;;;;39.00;23.50;;;;;;;-0.27;73.51;100490.95;106026;1256;59569;-74
2023/12/06 09:59:48;;;;;;;40.10;25.90;;;;;;;-0.21;72.89;100491.32;106366;1254;73044;-75
2023/12/06 10:02:15;;;;;;;30.30;22.20;;;;;;;-0.07;72.55;100480.33;105965;1253;70461;-76
2023/12/06 10:04:42;;;;;;;35.00;21.90;;;;;;;0.09;72.50;100482.60;105877;1256;71043;-74
2023/12/06 10:07:10;;;;;;;34.20;22.80;;;;;;;0.17;71.87;100482.52;105869;1253;59705;-73
2023/12/06 10:09:37;;;;;;;32.20;21.90;;;;;;;0.19;71.11;100482.23;106072;1254;60293;-74
2023/12/06 10:12:06;;;;;;;35.80;21.90;;;;;;;0.17;70.91;100484.59;105914;1255;70693;-75
2023/12/06 10:14:33;;;;;;;30.40;20.90;;;;;;;0.15;70.38;100482.27;105978;1253;70402;-75
2023/12/06 10:17:00;;;;;;;29.20;20.70;;;;;;;0.09;69.55;100482.05;105931;1256;72676;-75
2023/12/06 10:19:27;;;;;;;32.90;21.50;;;;;;;-0.00;69.78;100475.94;105938;1254;60858;-75
2023/12/06 10:21:56;;;;;;;32.90;22.40;;;;;;;-0.03;69.91;100482.04;105946;1253;60170;-74
2023/12/06 10:24:23;;;;;;;31.60;21.20;;;;;;;-0.06;69.81;100481.30;106016;1254;73328;-75
2023/12/06 10:27:00;;;;;;;28.30;20.00;;;;;;;-0.10;69.68;100489.20;106224;1253;70190;-76
2023/12/06 10:29:30;;;;;;;34.10;21.10;;;;;;;-0.12;69.56;100488.44;106300;1254;72816;-75
2023/12/06 10:31:56;;;;;;;27.00;17.80;;;;;;;-0.02;69.75;100481.09;106065;1254;61184;-74
2023/12/06 10:34:23;;;;;;;27.90;19.10;;;;;;;0.09;69.72;100477.73;105870;1256;59608;-76
2023/12/06 10:36:53;;;;;;;28.30;20.00;;;;;;;0.07;69.88;100483.41;105939;1257;73113;-75
2023/12/06 10:39:20;;;;;;;51.80;34.30;;;;;;;0.06;69.90;100476.16;105985;1254;70146;-77
2023/12/06 10:41:49;;;;;;;28.30;20.50;;;;;;;0.07;69.79;100477.83;105978;1254;73891;-75
2023/12/06 10:44:16;;;;;;;30.70;22.30;;;;;;;0.09;69.69;100476.70;106179;1253;59727;-75
2023/12/06 10:46:43;;;;;;;33.40;20.90;;;;;;;0.11;69.70;100474.50;105962;1255;59557;-76
2023/12/06 10:49:11;;;;;;;29.70;21.20;;;;;;;0.14;69.65;100478.64;105998;1254;71988;-75
2023/12/06 10:51:38;;;;;;;31.50;21.70;;;;;;;0.13;68.72;100478.23;105812;1256;71447;-77
2023/12/06 10:54:05;;;;;;;30.90;20.70;;;;;;;0.07;68.87;100475.54;105856;1260;72694;-76
2023/12/06 10:56:31;;;;;;;29.30;20.70;;;;;;;0.03;68.87;100474.57;105885;1256;61486;-75
2023/12/06 10:58:59;;;;;;;30.60;22.00;;;;;;;-0.00;69.20;100467.77;105859;1254;60270;-76
2023/12/06 11:01:26;;;;;;;28.50;19.10;;;;;;;-0.01;69.33;100472.49;105973;1253;72801;-74
2023/12/06 11:03:53;;;;;;;29.50;19.20;;;;;;;0.04;69.03;100471.04;105967;1254;71466;-75
2023/12/06 11:06:45;;;;;;;31.70;21.20;;;;;;;0.15;68.72;100467.27;105967;1254;70336;-74
2023/12/06 11:09:15;;;;;;;27.70;20.50;;;;;;;0.11;68.74;100459.83;105952;1253;60172;-74
2023/12/06 11:12:16;;;;;;;36.10;20.80;;;;;;;0.07;69.18;100459.72;106049;1256;60329;-75